Terminal Aerodrome Forecast
Issued by NWS

Home | Current Version | Previous Version | Text Only | Print | Product List | Glossary On
Versions: 1 2 3 4 5 6 7 8 9 10 11 12 13 14
820
FTUS44 KTSA 241720
TAFFYV
TAF
KFYV 241720Z 2418/2518 VRB04KT P6SM SCT050
     FM250100 00000KT P6SM SKC
      TEMPO 2508/2512 4SM BR
     FM251500 22004KT P6SM SKC=

USA.gov is the U.S. government's official web portal to all federal, state and local government web resources and services.